createdAt,value
2017-07-07T00:01:08.860Z,99.90
2017-07-07T00:03:35.250Z,99.90
2017-07-07T00:06:01.647Z,99.90
2017-07-07T00:08:28.044Z,99.50
2017-07-07T00:10:55.181Z,99.90
2017-07-07T00:13:22.353Z,99.20
2017-07-07T00:15:48.736Z,99.20
2017-07-07T00:18:15.113Z,99.10
2017-07-07T00:20:41.568Z,99.30
2017-07-07T00:23:07.939Z,99.30
2017-07-07T00:25:34.473Z,99.20
2017-07-07T00:28:00.853Z,99.70
2017-07-07T00:30:27.247Z,98.60
2017-07-07T00:32:53.661Z,99.60
2017-07-07T00:35:20.056Z,99.80
2017-07-07T00:37:46.475Z,99.90
2017-07-07T00:40:12.899Z,99.70
2017-07-07T00:42:40.021Z,99.90
2017-07-07T00:45:06.431Z,99.90
2017-07-07T00:47:32.819Z,99.90
2017-07-07T00:49:59.248Z,99.30
2017-07-07T00:52:26.378Z,99.90
2017-07-07T00:54:52.821Z,99.90
2017-07-07T00:57:20.395Z,99.70
2017-07-07T00:59:46.782Z,99.30
2017-07-07T01:02:13.168Z,99.60
2017-07-07T01:04:39.584Z,99.90
2017-07-07T01:07:06.720Z,99.90
2017-07-07T01:09:33.081Z,99.90
2017-07-07T01:11:59.487Z,99.60
2017-07-07T01:14:26.645Z,99.80
2017-07-07T01:16:53.796Z,99.90
2017-07-07T01:19:20.951Z,99.70
2017-07-07T01:21:47.333Z,99.70
2017-07-07T01:24:13.744Z,99.60
2017-07-07T01:26:40.112Z,99.50
2017-07-07T01:29:06.496Z,99.10
2017-07-07T01:31:32.915Z,99.30
2017-07-07T01:33:59.324Z,99.90
2017-07-07T01:36:26.492Z,99.90
2017-07-07T01:38:53.695Z,99.90
2017-07-07T01:41:20.109Z,99.90
2017-07-07T01:43:46.523Z,99.90
2017-07-07T01:46:12.948Z,99.80
2017-07-07T01:48:39.375Z,99.90
2017-07-07T01:51:06.539Z,99.90
2017-07-07T01:53:32.980Z,99.90
2017-07-07T01:55:59.400Z,99.90
2017-07-07T01:58:25.945Z,99.80
2017-07-07T02:00:52.377Z,99.60
2017-07-07T02:03:18.776Z,99.60
2017-07-07T02:05:45.191Z,99.70
2017-07-07T02:08:11.573Z,99.70
2017-07-07T02:10:38.133Z,99.00
2017-07-07T02:13:11.392Z,99.20
2017-07-07T02:15:37.949Z,99.90
2017-07-07T02:18:04.392Z,99.60
2017-07-07T02:20:30.789Z,99.80
2017-07-07T02:22:57.940Z,99.80
2017-07-07T02:25:25.057Z,99.80
2017-07-07T02:27:51.456Z,99.80
2017-07-07T02:30:17.881Z,99.90
2017-07-07T02:32:44.317Z,99.60
2017-07-07T02:35:10.724Z,99.60
2017-07-07T02:37:37.119Z,99.50
2017-07-07T02:40:03.560Z,99.40
2017-07-07T02:42:29.984Z,99.50
2017-07-07T02:44:56.364Z,99.70
2017-07-07T02:47:22.757Z,99.90
2017-07-07T02:49:49.930Z,99.70
2017-07-07T02:52:17.045Z,99.70
2017-07-07T02:54:43.444Z,99.70
2017-07-07T02:57:09.852Z,99.70
2017-07-07T02:59:36.392Z,99.80
2017-07-07T03:02:02.764Z,99.60
2017-07-07T03:04:29.157Z,99.90
2017-07-07T03:06:55.565Z,99.80
2017-07-07T03:09:22.709Z,99.50
2017-07-07T03:11:49.871Z,99.60
2017-07-07T03:14:17.024Z,99.60
2017-07-07T03:16:44.149Z,99.40
2017-07-07T03:19:10.588Z,99.40
2017-07-07T03:21:36.976Z,99.20
2017-07-07T03:24:03.383Z,99.20
2017-07-07T03:26:29.763Z,99.50
2017-07-07T03:28:56.176Z,99.50
2017-07-07T03:31:22.564Z,99.20
2017-07-07T03:33:49.936Z,99.50
2017-07-07T03:36:16.336Z,99.50
2017-07-07T03:38:43.451Z,99.40
2017-07-07T03:41:09.874Z,99.40
2017-07-07T03:43:36.254Z,99.50
2017-07-07T03:46:02.664Z,99.90
2017-07-07T03:48:29.100Z,99.40
2017-07-07T03:50:55.530Z,99.90
2017-07-07T03:53:21.925Z,99.90
2017-07-07T03:55:48.321Z,99.90
2017-07-07T03:58:15.697Z,99.90
2017-07-07T04:00:42.092Z,99.90
2017-07-07T04:03:08.484Z,99.90
2017-07-07T04:05:34.901Z,99.90
2017-07-07T04:08:01.280Z,99.90
2017-07-07T04:10:27.821Z,99.90
2017-07-07T04:12:54.217Z,99.90
2017-07-07T04:15:20.600Z,99.90
2017-07-07T04:17:47.772Z,99.90
2017-07-07T04:20:14.194Z,99.70
2017-07-07T04:22:41.312Z,99.90
2017-07-07T04:25:07.708Z,99.90
2017-07-07T04:27:34.093Z,99.90
2017-07-07T04:30:16.350Z,99.90
2017-07-07T04:32:42.741Z,99.90
2017-07-07T04:35:09.876Z,99.90
2017-07-07T04:37:37.031Z,99.90
2017-07-07T04:40:04.322Z,99.90
2017-07-07T04:42:30.837Z,99.90
2017-07-07T04:44:57.227Z,99.90
2017-07-07T04:47:23.629Z,99.90
2017-07-07T04:49:50.076Z,99.90
2017-07-07T04:52:16.472Z,99.90
2017-07-07T04:54:42.899Z,99.90
2017-07-07T04:57:09.292Z,99.90
2017-07-07T04:59:35.705Z,99.90
2017-07-07T05:02:02.101Z,99.90
2017-07-07T05:04:28.535Z,99.90
2017-07-07T05:06:54.927Z,99.90
2017-07-07T05:09:21.327Z,99.90
2017-07-07T05:11:47.752Z,99.90
2017-07-07T05:14:14.152Z,99.90
2017-07-07T05:16:40.560Z,99.90
2017-07-07T05:19:06.969Z,99.90
2017-07-07T05:21:33.513Z,99.90
2017-07-07T05:23:59.885Z,99.90
2017-07-07T05:26:27.009Z,99.90
2017-07-07T05:28:53.425Z,99.90
2017-07-07T05:31:19.872Z,99.90
2017-07-07T05:33:46.260Z,99.90
2017-07-07T05:36:12.674Z,99.90
2017-07-07T05:38:39.109Z,99.90
2017-07-07T05:41:05.491Z,99.90
2017-07-07T05:43:31.997Z,99.90
2017-07-07T05:45:58.369Z,99.90
2017-07-07T05:48:24.760Z,99.80
2017-07-07T05:50:51.200Z,99.90
2017-07-07T05:53:17.620Z,99.80
2017-07-07T05:55:44.024Z,99.90
2017-07-07T05:58:11.180Z,99.90
2017-07-07T06:00:37.652Z,99.90
2017-07-07T06:03:04.093Z,99.90
2017-07-07T06:05:30.489Z,99.90
2017-07-07T06:07:56.875Z,99.90
2017-07-07T06:10:23.289Z,99.90
2017-07-07T06:12:49.811Z,99.90
2017-07-07T06:15:16.257Z,99.30
2017-07-07T06:17:42.425Z,99.10
2017-07-07T06:20:09.476Z,98.00
2017-07-07T06:22:35.879Z,98.00
2017-07-07T06:25:02.304Z,98.60
2017-07-07T06:27:28.716Z,99.00
2017-07-07T06:29:55.121Z,98.70
2017-07-07T06:32:22.768Z,98.80
2017-07-07T06:34:49.191Z,97.80
2017-07-07T06:37:15.570Z,97.60
2017-07-07T06:39:42.004Z,97.30
2017-07-07T06:42:08.400Z,94.70
2017-07-07T06:44:35.549Z,93.00
2017-07-07T06:47:02.856Z,93.90
2017-07-07T06:49:29.590Z,93.90
2017-07-07T06:51:56.041Z,94.10
2017-07-07T06:54:22.469Z,92.70
2017-07-07T06:56:49.036Z,92.50
2017-07-07T06:59:16.186Z,94.10
2017-07-07T07:01:43.329Z,94.30
2017-07-07T07:04:10.500Z,93.70
2017-07-07T07:06:36.916Z,93.70
2017-07-07T07:09:04.097Z,93.60
2017-07-07T07:11:30.517Z,93.20
2017-07-07T07:14:12.705Z,92.50
2017-07-07T07:16:39.095Z,92.60
2017-07-07T07:19:05.496Z,92.40
2017-07-07T07:21:32.017Z,92.30
2017-07-07T07:23:59.128Z,92.70
2017-07-07T07:26:25.529Z,92.70
2017-07-07T07:28:51.969Z,91.50
2017-07-07T07:31:18.416Z,91.60
2017-07-07T07:33:44.853Z,91.00
2017-07-07T07:36:11.237Z,91.70
2017-07-07T07:38:37.624Z,91.50
2017-07-07T07:41:04.020Z,90.80
2017-07-07T07:43:30.443Z,90.40
2017-07-07T07:45:56.895Z,90.10
2017-07-07T07:48:23.285Z,90.00
2017-07-07T07:50:50.455Z,89.80
2017-07-07T07:53:16.848Z,89.60
2017-07-07T07:55:43.231Z,84.60
2017-07-07T07:58:09.668Z,85.80
2017-07-07T08:00:36.098Z,87.20
2017-07-07T08:03:02.503Z,85.20
2017-07-07T08:05:29.677Z,87.90
2017-07-07T08:07:56.068Z,87.80
2017-07-07T08:10:23.208Z,84.70
2017-07-07T08:12:49.631Z,84.60
2017-07-07T08:15:17.001Z,86.40
2017-07-07T08:17:43.389Z,83.00
2017-07-07T08:20:09.780Z,81.90
2017-07-07T08:22:37.045Z,81.00
2017-07-07T08:25:04.181Z,80.90
2017-07-07T08:27:31.311Z,81.50
2017-07-07T08:29:57.736Z,81.60
2017-07-07T08:32:24.122Z,81.10
2017-07-07T08:34:50.520Z,82.70
2017-07-07T08:37:17.664Z,75.00
2017-07-07T08:39:44.086Z,75.00
2017-07-07T08:42:10.505Z,75.60
2017-07-07T08:44:36.885Z,76.60
2017-07-07T08:47:03.312Z,76.00
2017-07-07T08:49:30.448Z,74.30
2017-07-07T08:51:56.852Z,74.10
2017-07-07T08:54:23.440Z,75.30
2017-07-07T08:56:49.833Z,76.60
2017-07-07T08:59:16.212Z,74.40
2017-07-07T09:01:42.647Z,71.50
2017-07-07T09:04:09.212Z,72.60
2017-07-07T09:06:35.613Z,70.60
2017-07-07T09:09:02.036Z,74.00
2017-07-07T09:11:28.445Z,75.90
2017-07-07T09:13:55.581Z,71.60
2017-07-07T09:16:21.983Z,71.30
2017-07-07T09:18:48.405Z,76.30
2017-07-07T09:21:14.805Z,73.70
2017-07-07T09:23:41.936Z,72.80
2017-07-07T09:26:08.336Z,72.80
2017-07-07T09:28:34.728Z,71.30
2017-07-07T09:31:01.881Z,72.30
2017-07-07T09:33:28.340Z,72.30
2017-07-07T09:35:54.960Z,70.60
2017-07-07T09:38:21.353Z,69.80
2017-07-07T09:40:47.741Z,69.60
2017-07-07T09:43:14.560Z,68.80
2017-07-07T09:45:40.943Z,68.30
2017-07-07T09:48:07.373Z,68.80
2017-07-07T09:50:33.807Z,63.90
2017-07-07T09:53:00.580Z,64.20
2017-07-07T09:55:27.224Z,66.40
2017-07-07T09:57:53.764Z,65.40
2017-07-07T10:00:20.330Z,68.70
2017-07-07T10:02:48.074Z,68.50
2017-07-07T10:05:14.473Z,68.50
2017-07-07T10:07:40.943Z,66.10
2017-07-07T10:10:07.476Z,70.30
2017-07-07T10:12:33.989Z,65.20
2017-07-07T10:15:00.516Z,68.30
2017-07-07T10:17:26.933Z,64.20
2017-07-07T10:19:53.337Z,62.90
2017-07-07T10:22:19.715Z,59.10
2017-07-07T10:24:46.900Z,58.70
2017-07-07T10:27:13.276Z,58.70
2017-07-07T10:29:39.677Z,62.50
2017-07-07T10:32:06.105Z,59.60
2017-07-07T10:34:32.532Z,59.40
2017-07-07T10:36:58.912Z,61.50
2017-07-07T10:39:25.456Z,59.40
2017-07-07T10:41:52.941Z,60.00
2017-07-07T10:44:19.336Z,62.00
2017-07-07T10:46:46.016Z,59.30
2017-07-07T10:49:12.400Z,61.30
2017-07-07T10:51:38.789Z,67.00
2017-07-07T10:54:05.229Z,58.10
2017-07-07T10:56:31.616Z,62.00
2017-07-07T10:58:58.036Z,56.90
2017-07-07T11:01:24.452Z,57.40
2017-07-07T11:03:50.845Z,57.00
2017-07-07T11:06:17.286Z,55.50
2017-07-07T11:08:43.664Z,55.30
2017-07-07T11:11:10.048Z,54.60
2017-07-07T11:13:36.448Z,50.80
2017-07-07T11:16:02.856Z,49.20
2017-07-07T11:18:29.256Z,51.80
2017-07-07T11:21:10.568Z,51.10
2017-07-07T11:23:37.148Z,53.80
2017-07-07T11:26:03.532Z,51.90
2017-07-07T11:28:29.913Z,52.00
2017-07-07T11:30:56.327Z,51.50
2017-07-07T11:33:22.744Z,52.00
2017-07-07T11:35:49.158Z,50.50
2017-07-07T11:38:15.600Z,51.40
2017-07-07T11:40:42.388Z,52.70
2017-07-07T11:43:08.826Z,54.30
2017-07-07T11:45:35.209Z,53.40
2017-07-07T11:48:01.624Z,56.80
2017-07-07T11:50:28.237Z,55.50
2017-07-07T11:52:55.582Z,58.00
2017-07-07T11:55:22.298Z,58.00
2017-07-07T11:57:48.811Z,62.10
2017-07-07T12:00:16.453Z,63.70
2017-07-07T12:02:42.928Z,63.70
2017-07-07T12:05:09.499Z,66.00
2017-07-07T12:07:35.973Z,70.40
2017-07-07T12:10:02.582Z,73.80
2017-07-07T12:12:29.101Z,77.10
2017-07-07T12:14:55.576Z,84.60
2017-07-07T12:17:22.170Z,88.80
2017-07-07T12:19:48.626Z,91.20
2017-07-07T12:22:15.264Z,91.30
2017-07-07T12:24:41.849Z,91.00
2017-07-07T12:27:08.313Z,90.00
2017-07-07T12:29:34.717Z,90.20
2017-07-07T12:32:01.902Z,84.50
2017-07-07T12:34:28.337Z,84.50
2017-07-07T12:36:54.760Z,82.00
2017-07-07T12:39:21.186Z,81.50
2017-07-07T12:41:47.593Z,76.60
2017-07-07T12:44:14.789Z,75.60
2017-07-07T12:46:41.164Z,75.60
2017-07-07T12:49:07.594Z,72.40
2017-07-07T12:51:33.989Z,76.60
2017-07-07T12:54:00.393Z,76.30
2017-07-07T12:56:26.919Z,78.00
2017-07-07T12:58:54.040Z,78.40
2017-07-07T13:01:20.809Z,78.40
2017-07-07T13:03:47.468Z,72.70
2017-07-07T13:06:13.880Z,72.10
2017-07-07T13:08:41.081Z,65.30
2017-07-07T13:11:15.216Z,62.70
2017-07-07T13:13:41.641Z,62.70
2017-07-07T13:16:08.077Z,66.10
2017-07-07T13:18:34.464Z,63.00
2017-07-07T13:21:00.861Z,58.50
2017-07-07T13:23:28.011Z,57.70
2017-07-07T13:25:54.392Z,57.60
2017-07-07T13:28:20.809Z,58.30
2017-07-07T13:30:47.205Z,61.00
2017-07-07T13:33:14.584Z,62.60
2017-07-07T13:35:40.976Z,62.50
2017-07-07T13:38:07.344Z,65.70
2017-07-07T13:40:33.781Z,69.00
2017-07-07T13:43:00.228Z,69.40
2017-07-07T13:45:26.617Z,69.00
2017-07-07T13:47:53.000Z,69.50
2017-07-07T13:50:19.419Z,70.60
2017-07-07T13:52:45.797Z,74.70
2017-07-07T13:55:12.208Z,67.30
2017-07-07T13:57:38.625Z,69.40
2017-07-07T14:00:05.013Z,70.80
2017-07-07T14:02:31.426Z,68.80
2017-07-07T14:04:57.868Z,66.00
2017-07-07T14:07:24.271Z,64.90
2017-07-07T14:09:50.705Z,60.80
2017-07-07T14:12:17.108Z,62.70
2017-07-07T14:14:43.528Z,60.90
2017-07-07T14:17:10.684Z,57.50
2017-07-07T14:19:37.070Z,57.40
2017-07-07T14:22:03.503Z,57.40
2017-07-07T14:24:29.924Z,58.20
2017-07-07T14:26:56.373Z,56.60
2017-07-07T14:29:22.771Z,57.30
2017-07-07T14:31:49.201Z,59.60
2017-07-07T14:34:15.678Z,59.70
2017-07-07T14:36:42.085Z,61.00
2017-07-07T14:39:08.486Z,63.80
2017-07-07T14:41:35.169Z,65.10
2017-07-07T14:44:02.333Z,62.00
2017-07-07T14:46:28.833Z,62.60
2017-07-07T14:48:55.263Z,67.40
2017-07-07T14:51:21.653Z,67.60
2017-07-07T14:53:48.105Z,69.30
2017-07-07T14:56:14.487Z,67.90
2017-07-07T14:58:40.908Z,67.70
2017-07-07T15:01:07.296Z,65.90
2017-07-07T15:03:33.689Z,65.50
2017-07-07T15:06:00.108Z,63.20
2017-07-07T15:08:26.557Z,62.20
2017-07-07T15:10:52.977Z,58.80
2017-07-07T15:13:19.362Z,58.70
2017-07-07T15:15:45.785Z,57.40
2017-07-07T15:18:12.181Z,56.00
2017-07-07T15:20:38.565Z,55.40
2017-07-07T15:23:05.007Z,54.90
2017-07-07T15:25:31.401Z,55.40
2017-07-07T15:27:58.553Z,56.50
2017-07-07T15:30:24.957Z,56.50
2017-07-07T15:32:51.459Z,55.90
2017-07-07T15:35:17.876Z,56.90
2017-07-07T15:37:44.564Z,56.10
2017-07-07T15:40:11.792Z,55.70
2017-07-07T15:42:38.197Z,55.70
2017-07-07T15:45:04.637Z,56.10
2017-07-07T15:47:31.028Z,57.90
2017-07-07T15:49:57.425Z,59.00
2017-07-07T15:52:23.917Z,58.90
2017-07-07T15:54:50.356Z,59.60
2017-07-07T15:57:16.780Z,62.70
2017-07-07T15:59:43.920Z,66.40
2017-07-07T16:02:10.355Z,66.50
2017-07-07T16:04:36.805Z,65.30
2017-07-07T16:07:03.196Z,64.60
2017-07-07T16:09:29.626Z,67.70
2017-07-07T16:11:56.020Z,67.10
2017-07-07T16:14:22.413Z,69.30
2017-07-07T16:16:48.822Z,69.50
2017-07-07T16:19:15.201Z,70.70
2017-07-07T16:21:41.645Z,71.60
2017-07-07T16:24:08.041Z,70.50
2017-07-07T16:26:34.431Z,69.80
2017-07-07T16:29:00.847Z,71.50
2017-07-07T16:31:27.284Z,70.10
2017-07-07T16:33:53.677Z,69.80
2017-07-07T16:36:20.848Z,67.90
2017-07-07T16:38:47.309Z,67.80
2017-07-07T16:41:13.701Z,68.80
2017-07-07T16:43:40.907Z,72.00
2017-07-07T16:46:07.424Z,72.00
2017-07-07T16:48:33.814Z,72.00
2017-07-07T16:51:00.932Z,74.80
2017-07-07T16:53:27.461Z,74.70
2017-07-07T16:55:53.865Z,74.20
2017-07-07T16:58:20.281Z,74.40
2017-07-07T17:00:46.706Z,75.80
2017-07-07T17:03:13.125Z,73.90
2017-07-07T17:05:40.374Z,74.20
2017-07-07T17:08:07.484Z,75.10
2017-07-07T17:10:33.871Z,74.40
2017-07-07T17:13:00.300Z,75.10
2017-07-07T17:15:26.731Z,73.40
2017-07-07T17:17:53.126Z,73.20
2017-07-07T17:20:19.532Z,73.50
2017-07-07T17:22:45.919Z,73.60
2017-07-07T17:25:12.337Z,73.60
2017-07-07T17:27:38.725Z,73.50
2017-07-07T17:30:05.200Z,73.60
2017-07-07T17:32:31.713Z,73.10
2017-07-07T17:34:58.097Z,73.40
2017-07-07T17:37:25.213Z,73.30
2017-07-07T17:39:51.637Z,73.30
2017-07-07T17:42:18.068Z,73.20
2017-07-07T17:44:44.461Z,73.90
2017-07-07T17:47:10.886Z,73.50
2017-07-07T17:49:37.289Z,74.60
2017-07-07T17:52:03.676Z,74.60
2017-07-07T17:54:30.093Z,76.30
2017-07-07T17:56:56.532Z,74.70
2017-07-07T17:59:23.116Z,73.10
2017-07-07T18:01:49.528Z,73.30
2017-07-07T18:04:15.916Z,73.00
2017-07-07T18:06:42.325Z,74.60
2017-07-07T18:09:08.720Z,73.80
2017-07-07T18:11:35.148Z,74.80
2017-07-07T18:14:01.564Z,76.10
2017-07-07T18:16:27.969Z,79.10
2017-07-07T18:18:54.373Z,79.80
2017-07-07T18:21:20.765Z,79.50
2017-07-07T18:23:47.179Z,78.70
2017-07-07T18:26:13.819Z,79.10
2017-07-07T18:28:40.224Z,80.00
2017-07-07T18:31:07.880Z,83.40
2017-07-07T18:33:34.337Z,82.40
2017-07-07T18:36:00.725Z,83.70
2017-07-07T18:38:27.129Z,83.90
2017-07-07T18:40:53.520Z,84.50
2017-07-07T18:43:20.700Z,84.40
2017-07-07T18:45:47.109Z,84.40
2017-07-07T18:48:14.221Z,86.30
2017-07-07T18:50:40.658Z,86.30
2017-07-07T18:53:07.052Z,86.00
2017-07-07T18:55:33.447Z,87.10
2017-07-07T18:58:00.717Z,87.90
2017-07-07T19:00:27.101Z,87.90
2017-07-07T19:02:53.489Z,87.70
2017-07-07T19:05:20.019Z,87.10
2017-07-07T19:07:46.404Z,88.10
2017-07-07T19:10:12.804Z,88.90
2017-07-07T19:12:39.223Z,89.20
2017-07-07T19:15:05.616Z,89.10
2017-07-07T19:17:31.989Z,89.50
2017-07-07T19:19:58.621Z,90.20
2017-07-07T19:22:25.020Z,90.30
2017-07-07T19:24:52.208Z,90.30
2017-07-07T19:27:18.605Z,90.10
2017-07-07T19:29:44.977Z,90.10
2017-07-07T19:32:11.388Z,90.50
2017-07-07T19:34:38.593Z,90.90
2017-07-07T19:37:04.984Z,90.80
2017-07-07T19:39:31.403Z,90.90
2017-07-07T19:41:58.517Z,91.20
2017-07-07T19:44:24.924Z,91.20
2017-07-07T19:46:51.329Z,91.20
2017-07-07T19:49:17.780Z,91.10
2017-07-07T19:51:44.184Z,91.30
2017-07-07T19:54:10.602Z,91.60
2017-07-07T19:56:37.736Z,91.70
2017-07-07T19:59:04.136Z,91.70
2017-07-07T20:01:30.738Z,91.70
2017-07-07T20:03:57.160Z,91.60
2017-07-07T20:06:24.297Z,91.80
2017-07-07T20:08:50.716Z,91.80
2017-07-07T20:11:17.261Z,92.10
2017-07-07T20:13:43.716Z,92.10
2017-07-07T20:16:10.849Z,92.20
2017-07-07T20:18:37.297Z,92.20
2017-07-07T20:21:04.416Z,92.60
2017-07-07T20:23:30.836Z,92.60
2017-07-07T20:25:57.233Z,92.70
2017-07-07T20:28:23.644Z,92.70
2017-07-07T20:30:50.819Z,92.80
2017-07-07T20:33:17.239Z,92.70
2017-07-07T20:35:43.885Z,92.90
2017-07-07T20:38:10.293Z,93.00
2017-07-07T20:40:37.421Z,93.20
2017-07-07T20:43:03.856Z,93.10
2017-07-07T20:45:30.268Z,93.20
2017-07-07T20:47:56.685Z,93.40
2017-07-07T20:50:23.102Z,93.40
2017-07-07T20:52:49.492Z,93.20
2017-07-07T20:55:15.942Z,93.30
2017-07-07T20:57:42.313Z,93.40
2017-07-07T21:00:08.718Z,93.30
2017-07-07T21:02:35.136Z,93.40
2017-07-07T21:05:02.301Z,94.10
2017-07-07T21:07:28.728Z,93.70
2017-07-07T21:09:55.924Z,94.00
2017-07-07T21:12:22.349Z,94.00
2017-07-07T21:14:48.725Z,93.80
2017-07-07T21:17:15.317Z,93.90
2017-07-07T21:19:41.720Z,93.90
2017-07-07T21:22:08.104Z,94.00
2017-07-07T21:24:34.639Z,93.80
2017-07-07T21:27:01.020Z,94.10
2017-07-07T21:29:27.389Z,94.50
2017-07-07T21:31:53.890Z,94.30
2017-07-07T21:34:20.273Z,94.30
2017-07-07T21:36:46.684Z,94.30
2017-07-07T21:39:13.097Z,94.40
2017-07-07T21:41:39.557Z,94.50
2017-07-07T21:44:05.960Z,94.50
2017-07-07T21:46:32.376Z,94.70
2017-07-07T21:48:58.762Z,94.80
2017-07-07T21:51:25.143Z,94.80
2017-07-07T21:53:51.557Z,95.10
2017-07-07T21:56:18.941Z,95.50
2017-07-07T21:58:45.346Z,95.50
2017-07-07T22:01:12.472Z,95.20
2017-07-07T22:03:38.879Z,95.20
2017-07-07T22:06:05.296Z,95.00
2017-07-07T22:08:31.716Z,95.10
2017-07-07T22:10:58.096Z,95.10
2017-07-07T22:13:24.495Z,95.10
2017-07-07T22:15:50.881Z,95.40
2017-07-07T22:18:17.552Z,95.10
2017-07-07T22:20:44.669Z,95.50
2017-07-07T22:23:11.051Z,95.40
2017-07-07T22:25:37.449Z,95.20
2017-07-07T22:28:04.568Z,95.10
2017-07-07T22:30:31.129Z,95.10
2017-07-07T22:32:58.265Z,95.30
2017-07-07T22:35:24.652Z,95.30
2017-07-07T22:37:51.056Z,95.30
2017-07-07T22:40:17.484Z,95.40
2017-07-07T22:42:43.900Z,95.60
2017-07-07T22:45:10.341Z,95.90
2017-07-07T22:47:37.493Z,95.90
2017-07-07T22:50:04.657Z,95.90
2017-07-07T22:52:31.041Z,95.90
2017-07-07T22:54:57.728Z,95.70
2017-07-07T22:57:24.105Z,95.50
2017-07-07T22:59:50.505Z,95.50
2017-07-07T23:02:16.924Z,95.50
2017-07-07T23:04:43.308Z,95.50
2017-07-07T23:07:09.741Z,95.30
2017-07-07T23:09:36.137Z,95.10
2017-07-07T23:12:02.650Z,95.10
2017-07-07T23:14:29.047Z,95.00
2017-07-07T23:16:55.433Z,94.80
2017-07-07T23:19:21.836Z,95.10
2017-07-07T23:21:48.982Z,95.10
2017-07-07T23:24:16.248Z,95.20
2017-07-07T23:26:43.371Z,94.60
2017-07-07T23:29:09.757Z,94.60
2017-07-07T23:31:36.169Z,94.70
2017-07-07T23:34:02.565Z,94.90
2017-07-07T23:36:28.965Z,94.90
2017-07-07T23:38:55.656Z,94.30
2017-07-07T23:41:22.931Z,93.90
2017-07-07T23:43:49.341Z,93.90
2017-07-07T23:46:15.729Z,93.60
2017-07-07T23:48:42.137Z,93.70
2017-07-07T23:51:08.525Z,93.60
2017-07-07T23:53:34.924Z,93.50
2017-07-07T23:56:01.324Z,93.30
2017-07-07T23:58:27.704Z,92.80
